Time;durP1;ratioP1;P1;durP2;ratioP2;P2;SDS_P1;SDS_P2;PMS_P1;PMS_P2;Temp;Humidity;BMP_temperature;BMP_pressure;BME280_temperature;BME280_humidity;BME280_pressure;Samples;Min_cycle;Max_cycle;Signal;HPM_P1;HPM_P2
2024/02/27 00:03:30;;;;;;;0.60;0.60;;;23.00;45.50;;;;;;10366371;28;20519;-52
2024/02/27 00:08:32;;;;;;;2.00;0.80;;;22.90;45.60;;;;;;10366906;28;20419;-50
2024/02/27 00:13:34;;;;;;;1.02;0.80;;;23.00;45.60;;;;;;10368217;28;20046;-54
2024/02/27 00:18:36;;;;;;;1.58;0.73;;;23.00;45.20;;;;;;10368731;28;20056;-54
2024/02/27 00:23:38;;;;;;;1.13;0.80;;;22.90;45.30;;;;;;10369829;28;20527;-53
2024/02/27 00:28:40;;;;;;;1.10;0.70;;;22.70;45.70;;;;;;10368550;28;20050;-53
2024/02/27 00:33:43;;;;;;;0.95;0.70;;;22.90;45.30;;;;;;10372971;28;20057;-56
2024/02/27 00:38:44;;;;;;;0.60;0.60;;;22.90;45.40;;;;;;10369824;28;20061;-53
2024/02/27 00:43:46;;;;;;;1.15;0.85;;;22.90;45.40;;;;;;10366456;28;20056;-54
2024/02/27 00:48:50;;;;;;;1.27;0.63;;;22.80;45.70;;;;;;10366532;28;20088;-51
2024/02/27 00:53:51;;;;;;;0.80;0.80;;;22.80;45.60;;;;;;10370384;28;20048;-51
2024/02/27 00:58:53;;;;;;;0.68;0.68;;;22.80;45.20;;;;;;10365133;28;20048;-53
2024/02/27 01:03:56;;;;;;;1.42;0.77;;;22.70;45.40;;;;;;10361023;28;20064;-57
2024/02/27 01:08:57;;;;;;;0.50;0.50;;;22.80;45.20;;;;;;10356749;28;20049;-57
2024/02/27 01:13:59;;;;;;;0.60;0.60;;;22.90;45.20;;;;;;10359784;28;20049;-56
2024/02/27 01:19:02;;;;;;;0.80;0.63;;;22.80;45.40;;;;;;10364320;28;20060;-57
2024/02/27 01:24:04;;;;;;;0.52;0.52;;;22.80;45.40;;;;;;10357447;28;20061;-57
2024/02/27 01:29:05;;;;;;;0.65;0.52;;;22.90;45.20;;;;;;10360313;28;20085;-54
2024/02/27 01:34:09;;;;;;;1.00;0.57;;;22.90;45.40;;;;;;10360967;28;20042;-57
2024/02/27 01:39:10;;;;;;;0.90;0.60;;;22.90;45.20;;;;;;10364756;28;20045;-55
2024/02/27 01:44:12;;;;;;;0.63;0.60;;;22.90;45.00;;;;;;10359572;28;20062;-53
2024/02/27 01:49:15;;;;;;;0.68;0.68;;;22.70;45.10;;;;;;10364616;28;20049;-56
2024/02/27 01:54:19;;;;;;;0.50;0.50;;;22.80;45.20;;;;;;10361712;28;20052;-57
2024/02/27 01:59:22;;;;;;;0.60;0.60;;;22.80;45.30;;;;;;10357210;28;20046;-54
2024/02/27 02:04:26;;;;;;;0.50;0.50;;;22.80;45.20;;;;;;10356877;28;20428;-57
2024/02/27 02:09:27;;;;;;;0.65;0.60;;;22.80;45.30;;;;;;10362298;28;20038;-54
2024/02/27 02:14:29;;;;;;;0.73;0.50;;;22.90;44.80;;;;;;10361118;28;20043;-54
2024/02/27 02:19:32;;;;;;;0.70;0.60;;;22.80;44.80;;;;;;10354385;28;20052;-55
2024/02/27 02:24:36;;;;;;;0.70;0.60;;;22.60;45.20;;;;;;10349155;28;20045;-54
2024/02/27 02:29:37;;;;;;;1.30;0.70;;;22.70;45.30;;;;;;10362704;28;20053;-55
2024/02/27 02:40:37;;;;;;;1.27;0.70;;;22.70;45.10;;;;;;10351862;28;20038;-53
2024/02/27 02:45:40;;;;;;;0.70;0.60;;;22.70;45.30;;;;;;10360348;28;20042;-55
2024/02/27 02:50:42;;;;;;;0.50;0.50;;;22.70;45.10;;;;;;10356753;28;20061;-55
2024/02/27 02:55:45;;;;;;;0.95;0.60;;;22.80;45.30;;;;;;10357096;28;20052;-56
2024/02/27 03:00:47;;;;;;;0.40;0.40;;;22.70;45.20;;;;;;10352392;28;20041;-55
2024/02/27 03:05:49;;;;;;;1.08;0.50;;;22.80;45.20;;;;;;10353905;28;20081;-55
2024/02/27 03:10:52;;;;;;;0.50;0.50;;;22.70;45.30;;;;;;10348955;28;20057;-55
2024/02/27 03:15:54;;;;;;;0.50;0.50;;;22.70;45.20;;;;;;10348334;28;20125;-55
2024/02/27 03:20:55;;;;;;;0.50;0.50;;;22.80;45.10;;;;;;10356131;28;20136;-53
2024/02/27 03:25:58;;;;;;;0.70;0.60;;;22.70;45.20;;;;;;10352113;28;20041;-56
2024/02/27 03:31:00;;;;;;;0.50;0.50;;;22.70;45.30;;;;;;10356611;28;20044;-52
2024/02/27 03:36:03;;;;;;;0.50;0.50;;;22.70;45.30;;;;;;10357783;28;20038;-56
2024/02/27 03:41:06;;;;;;;0.50;0.50;;;22.70;45.20;;;;;;10348127;28;20048;-55
2024/02/27 03:46:08;;;;;;;0.52;0.50;;;22.80;45.10;;;;;;10350731;28;20045;-55
2024/02/27 03:51:09;;;;;;;0.60;0.60;;;22.70;45.30;;;;;;10353211;28;20042;-55
2024/02/27 03:56:12;;;;;;;0.57;0.57;;;22.80;45.10;;;;;;10360076;28;20138;-55
2024/02/27 04:01:16;;;;;;;1.20;0.80;;;22.80;44.90;;;;;;10355803;28;20042;-53
2024/02/27 04:06:17;;;;;;;1.10;0.80;;;22.70;44.50;;;;;;10359518;28;20052;-55
2024/02/27 04:11:20;;;;;;;0.90;0.90;;;22.60;44.70;;;;;;10354772;28;20052;-55
2024/02/27 04:16:22;;;;;;;0.93;0.80;;;22.70;44.30;;;;;;10350374;28;20469;-56
2024/02/27 04:21:24;;;;;;;0.52;0.52;;;22.70;44.50;;;;;;10355067;28;20109;-54
2024/02/27 04:26:27;;;;;;;0.60;0.60;;;23.10;44.50;;;;;;10353168;28;20056;-57
2024/02/27 04:31:28;;;;;;;0.95;0.50;;;23.80;43.80;;;;;;10350106;28;20045;-54
2024/02/27 04:36:30;;;;;;;0.60;0.60;;;24.20;43.30;;;;;;10351754;28;20144;-56
2024/02/27 04:41:33;;;;;;;0.60;0.55;;;24.50;43.10;;;;;;10359387;28;21333;-56
2024/02/27 04:46:35;;;;;;;0.47;0.47;;;24.80;42.80;;;;;;10356330;28;20046;-53
2024/02/27 04:51:36;;;;;;;0.60;0.60;;;24.90;42.70;;;;;;10356649;28;20060;-56
2024/02/27 04:56:42;;;;;;;0.50;0.50;;;25.10;42.60;;;;;;10354505;28;20056;-53
2024/02/27 05:01:47;;;;;;;0.40;0.40;;;24.90;43.10;;;;;;10362511;28;20049;-55
2024/02/27 05:06:48;;;;;;;0.60;0.60;;;24.90;43.30;;;;;;10361377;28;20141;-55
2024/02/27 05:11:51;;;;;;;0.60;0.60;;;24.90;43.50;;;;;;10360226;28;20050;-57
2024/02/27 05:16:54;;;;;;;0.90;0.60;;;24.70;43.90;;;;;;10361827;28;20050;-57
2024/02/27 05:21:55;;;;;;;0.50;0.50;;;24.60;44.10;;;;;;10362442;28;20470;-57
2024/02/27 05:26:58;;;;;;;0.50;0.50;;;24.60;44.10;;;;;;10366356;28;20053;-54
2024/02/27 05:32:00;;;;;;;0.70;0.70;;;24.70;44.10;;;;;;10355811;28;20042;-50
2024/02/27 05:37:01;;;;;;;0.98;0.85;;;24.70;43.30;;;;;;10361414;28;20044;-51
2024/02/27 05:42:05;;;;;;;1.33;0.60;;;24.40;43.20;;;;;;10365034;28;20213;-55
2024/02/27 05:47:06;;;;;;;4.18;0.98;;;24.30;43.30;;;;;;10360413;28;20056;-49
2024/02/27 05:52:08;;;;;;;4.50;0.80;;;24.30;43.80;;;;;;10358325;28;20495;-55
2024/02/27 05:57:11;;;;;;;1.67;0.80;;;24.50;44.60;;;;;;10353138;28;20526;-51
2024/02/27 06:02:14;;;;;;;11.27;1.33;;;24.60;44.40;;;;;;10357403;28;20463;-55
2024/02/27 06:07:16;;;;;;;1.85;0.70;;;24.60;44.00;;;;;;10349658;28;20049;-49
2024/02/27 06:12:19;;;;;;;3.00;0.60;;;24.30;44.60;;;;;;10361069;28;20061;-52
2024/02/27 06:17:20;;;;;;;8.73;1.15;;;24.20;45.10;;;;;;10317698;28;20133;-50
2024/02/27 06:22:23;;;;;;;3.42;0.80;;;24.20;45.30;;;;;;10361161;28;20177;-49
2024/02/27 06:27:26;;;;;;;8.50;0.80;;;24.20;45.20;;;;;;10358744;28;20060;-52
2024/02/27 06:32:30;;;;;;;3.30;0.90;;;24.30;45.30;;;;;;10351100;28;20056;-53
2024/02/27 06:37:31;;;;;;;7.53;1.52;;;24.50;45.10;;;;;;10385952;28;20501;-54
2024/02/27 06:42:36;;;;;;;11.85;2.25;;;24.50;44.90;;;;;;10357031;28;20358;-50
2024/02/27 06:47:38;;;;;;;10.50;2.15;;;24.60;45.30;;;;;;10356485;28;20052;-52
2024/02/27 06:52:40;;;;;;;25.67;6.25;;;24.50;45.10;;;;;;10354363;28;20050;-52
2024/02/27 06:57:43;;;;;;;22.20;5.38;;;24.30;44.90;;;;;;10359364;28;20050;-53
2024/02/27 07:02:45;;;;;;;14.98;5.40;;;24.30;44.80;;;;;;10357381;28;20074;-50
2024/02/27 07:07:46;;;;;;;16.50;3.90;;;24.30;42.90;;;;;;10352855;28;20556;-57
2024/02/27 07:12:49;;;;;;;11.02;3.20;;;24.40;40.90;;;;;;10355783;28;20385;-55
2024/02/27 07:17:51;;;;;;;13.35;3.40;;;24.60;41.10;;;;;;10351520;28;20128;-55
2024/02/27 07:22:53;;;;;;;10.15;3.10;;;24.30;41.60;;;;;;10354660;28;20097;-50
2024/02/27 07:27:56;;;;;;;8.80;2.95;;;24.10;42.30;;;;;;10352069;28;20048;-52
2024/02/27 07:32:58;;;;;;;7.28;2.63;;;24.10;42.80;;;;;;10350514;28;20056;-54
2024/02/27 07:37:59;;;;;;;8.32;2.63;;;24.00;43.20;;;;;;10354460;28;20060;-55
2024/02/27 07:43:03;;;;;;;6.32;2.40;;;23.80;43.40;;;;;;10358664;28;20552;-54
2024/02/27 07:48:05;;;;;;;7.40;2.67;;;23.90;43.70;;;;;;10359858;28;20056;-56
2024/02/27 07:53:07;;;;;;;10.88;2.42;;;23.90;43.80;;;;;;10357537;28;20415;-49
2024/02/27 07:58:10;;;;;;;7.35;2.40;;;23.80;44.10;;;;;;10357439;28;20058;-52
2024/02/27 08:03:12;;;;;;;5.18;2.38;;;23.90;43.90;;;;;;10354652;28;20097;-52
2024/02/27 08:08:16;;;;;;;5.15;2.50;;;23.90;44.00;;;;;;10352973;28;20069;-53
2024/02/27 08:13:19;;;;;;;4.72;2.25;;;23.90;43.80;;;;;;10353005;28;20128;-54
2024/02/27 08:18:21;;;;;;;4.07;2.33;;;24.10;43.60;;;;;;10363013;28;20129;-54
2024/02/27 08:23:23;;;;;;;6.93;2.20;;;24.30;43.60;;;;;;10355549;28;20514;-48
2024/02/27 08:28:28;;;;;;;4.82;2.10;;;24.20;43.60;;;;;;10356298;28;20467;-53
2024/02/27 08:33:30;;;;;;;3.85;1.90;;;24.20;43.70;;;;;;10357888;28;20060;-53
2024/02/27 08:38:31;;;;;;;4.28;1.90;;;24.10;43.80;;;;;;10357439;28;20057;-53
2024/02/27 08:43:34;;;;;;;4.38;1.80;;;24.20;43.70;;;;;;10358068;28;20054;-49
2024/02/27 08:48:37;;;;;;;3.83;1.92;;;24.30;43.70;;;;;;10363135;28;20567;-51
2024/02/27 08:53:39;;;;;;;3.83;1.85;;;24.30;43.50;;;;;;10366032;28;20418;-49
2024/02/27 08:58:42;;;;;;;3.72;1.80;;;24.30;43.60;;;;;;10361977;28;20133;-54
2024/02/27 09:03:44;;;;;;;3.72;1.80;;;24.30;43.70;;;;;;10361282;28;20049;-48
2024/02/27 09:08:45;;;;;;;4.57;1.70;;;24.30;43.80;;;;;;10363560;28;20046;-49
2024/02/27 09:13:48;;;;;;;2.72;1.63;;;24.20;43.90;;;;;;10361125;28;20137;-52
2024/02/27 09:18:50;;;;;;;3.45;1.60;;;24.30;43.80;;;;;;10357217;28;20061;-51
2024/02/27 09:23:54;;;;;;;2.25;1.60;;;24.30;43.80;;;;;;10355207;28;20056;-53
2024/02/27 09:28:57;;;;;;;3.00;1.50;;;24.10;43.90;;;;;;10359948;28;20535;-49
2024/02/27 09:33:59;;;;;;;3.67;1.50;;;24.30;43.70;;;;;;10362817;28;20050;-50
2024/02/27 09:39:04;;;;;;;2.47;1.30;;;24.20;43.80;;;;;;10359166;28;20058;-53
2024/02/27 09:44:07;;;;;;;2.50;1.60;;;24.10;43.90;;;;;;10355605;28;20122;-48
2024/02/27 09:49:08;;;;;;;3.47;1.45;;;24.10;43.90;;;;;;10361253;28;20076;-49
2024/02/27 09:54:10;;;;;;;2.33;1.23;;;24.10;44.10;;;;;;10349626;28;20160;-49
2024/02/27 09:59:13;;;;;;;2.05;1.30;;;24.20;43.90;;;;;;10359269;28;20056;-56
2024/02/27 10:04:15;;;;;;;1.77;1.40;;;24.20;43.90;;;;;;10363452;28;20046;-56
2024/02/27 10:09:16;;;;;;;1.55;1.30;;;24.10;44.20;;;;;;10361874;28;20057;-53
2024/02/27 10:14:30;;;;;;;2.58;1.40;;;24.10;44.30;;;;;;10362737;28;20136;-55
2024/02/27 10:19:32;;;;;;;2.58;1.20;;;24.10;44.20;;;;;;10361736;28;20133;-53
2024/02/27 10:24:34;;;;;;;2.42;1.30;;;24.10;44.40;;;;;;10359057;28;20457;-52
2024/02/27 10:29:37;;;;;;;2.60;1.38;;;24.10;44.40;;;;;;10348923;28;20058;-53
2024/02/27 10:34:42;;;;;;;2.00;1.38;;;24.20;44.10;;;;;;10354697;28;20638;-54
2024/02/27 10:39:43;;;;;;;2.78;1.20;;;24.10;44.40;;;;;;10351262;28;20104;-54
2024/02/27 10:44:46;;;;;;;4.13;1.33;;;24.10;44.40;;;;;;10348991;28;20050;-51
2024/02/27 10:49:48;;;;;;;2.25;1.20;;;24.10;44.30;;;;;;10351432;28;20049;-50
2024/02/27 10:54:50;;;;;;;1.83;1.30;;;24.10;44.30;;;;;;10353655;28;20077;-55
2024/02/27 10:59:53;;;;;;;1.65;1.20;;;24.10;44.30;;;;;;10357890;28;20054;-52
2024/02/27 11:04:56;;;;;;;1.45;1.20;;;24.30;44.00;;;;;;10357403;28;20049;-53
2024/02/27 11:09:58;;;;;;;2.28;1.10;;;24.20;44.20;;;;;;10354608;28;20050;-49
2024/02/27 11:15:04;;;;;;;1.83;1.17;;;24.30;44.00;;;;;;10359081;28;20060;-50
2024/02/27 11:20:07;;;;;;;2.05;1.27;;;24.20;44.00;;;;;;10357720;28;20052;-53
2024/02/27 11:25:09;;;;;;;1.05;0.90;;;24.20;44.10;;;;;;10358632;28;20054;-54
2024/02/27 11:30:12;;;;;;;1.65;1.10;;;24.20;44.20;;;;;;10351800;28;20136;-53
2024/02/27 11:35:15;;;;;;;1.60;1.05;;;24.30;44.00;;;;;;10350556;28;20132;-50
2024/02/27 11:40:17;;;;;;;1.40;0.90;;;24.30;44.00;;;;;;10349424;28;20069;-50
2024/02/27 11:45:27;;;;;;;1.30;1.10;;;24.10;44.20;;;;;;10355831;28;20070;-55
2024/02/27 11:50:47;;;;;;;1.52;1.05;;;24.20;44.10;;;;;;10347984;28;20069;-53
2024/02/27 11:55:49;;;;;;;1.45;1.00;;;24.10;44.30;;;;;;10353744;28;20524;-51
2024/02/27 12:00:52;;;;;;;1.02;0.93;;;24.20;44.20;;;;;;10346086;28;20042;-56
2024/02/27 12:06:03;;;;;;;1.40;0.90;;;24.40;43.70;;;;;;10354544;28;20038;-54
2024/02/27 12:11:07;;;;;;;1.33;1.13;;;24.40;43.60;;;;;;10352650;28;20054;-51
2024/02/27 12:16:10;;;;;;;2.38;1.13;;;24.30;44.50;;;;;;10350266;28;20070;-54
2024/02/27 12:21:12;;;;;;;1.02;0.88;;;24.30;43.70;;;;;;10352898;28;20052;-54
2024/02/27 12:26:18;;;;;;;1.17;1.02;;;24.30;43.80;;;;;;10356578;28;20136;-54
2024/02/27 12:31:20;;;;;;;1.58;1.08;;;24.30;44.00;;;;;;10357633;28;20054;-55
2024/02/27 12:36:22;;;;;;;1.00;0.90;;;24.10;43.60;;;;;;10351589;28;20048;-53
2024/02/27 12:41:24;;;;;;;1.33;0.93;;;24.10;44.10;;;;;;10355802;28;20074;-51
2024/02/27 12:46:27;;;;;;;1.65;0.70;;;24.30;44.20;;;;;;10354895;28;20046;-54
2024/02/27 12:51:29;;;;;;;0.88;0.80;;;24.50;43.90;;;;;;10347933;28;20054;-55
2024/02/27 12:56:30;;;;;;;0.80;0.70;;;24.70;43.80;;;;;;10351828;28;20496;-56
2024/02/27 13:01:39;;;;;;;1.00;0.90;;;24.70;43.60;;;;;;10356996;28;20054;-56
2024/02/27 13:06:42;;;;;;;0.70;0.70;;;24.80;43.70;;;;;;10355158;28;20061;-55
2024/02/27 13:11:44;;;;;;;0.80;0.70;;;24.90;43.60;;;;;;10349521;28;20461;-56
2024/02/27 13:16:47;;;;;;;0.70;0.70;;;25.00;43.60;;;;;;10348773;28;20053;-53
2024/02/27 13:21:54;;;;;;;1.35;0.70;;;25.00;43.70;;;;;;10347924;28;20049;-56
2024/02/27 13:26:56;;;;;;;1.05;0.80;;;25.00;43.60;;;;;;10350290;28;20053;-56
2024/02/27 13:31:59;;;;;;;1.05;0.95;;;25.10;43.60;;;;;;10353616;28;20046;-57
2024/02/27 13:37:08;;;;;;;0.68;0.63;;;25.10;43.60;;;;;;10359996;28;20419;-57
2024/02/27 13:42:10;;;;;;;0.70;0.70;;;25.20;43.60;;;;;;10361737;28;20089;-56
2024/02/27 13:47:13;;;;;;;1.00;0.80;;;25.20;43.60;;;;;;10359716;28;20097;-57
2024/02/27 13:52:14;;;;;;;1.25;0.70;;;25.20;43.70;;;;;;10361498;28;20042;-54
2024/02/27 13:57:16;;;;;;;2.42;0.70;;;25.10;42.10;;;;;;10358779;28;20042;-55
2024/02/27 14:02:19;;;;;;;1.80;0.77;;;24.90;39.80;;;;;;10357693;28;20042;-57
2024/02/27 14:07:21;;;;;;;0.95;0.70;;;24.90;38.70;;;;;;10363202;28;20037;-56
2024/02/27 14:12:22;;;;;;;0.90;0.70;;;25.00;38.00;;;;;;10355634;28;20101;-55
2024/02/27 14:17:25;;;;;;;1.33;0.70;;;24.80;38.50;;;;;;10358416;28;20046;-55
2024/02/27 14:22:27;;;;;;;0.60;0.60;;;24.80;38.50;;;;;;10350061;28;20046;-54
2024/02/27 14:27:29;;;;;;;1.75;0.77;;;24.70;38.70;;;;;;10347221;28;20085;-56
2024/02/27 14:32:32;;;;;;;1.27;0.60;;;24.70;38.70;;;;;;10356099;28;20404;-55
2024/02/27 14:37:33;;;;;;;13.90;4.15;;;24.70;38.60;;;;;;10352837;28;20140;-56
2024/02/27 14:42:35;;;;;;;9.50;3.40;;;24.70;38.90;;;;;;10351468;28;20053;-57
2024/02/27 14:47:38;;;;;;;12.85;3.50;;;24.70;39.20;;;;;;10353187;28;20058;-54
2024/02/27 14:52:39;;;;;;;8.85;3.10;;;24.80;39.30;;;;;;10358699;28;20045;-55
2024/02/27 14:57:41;;;;;;;9.43;2.88;;;24.80;39.40;;;;;;10360762;28;20084;-52
2024/02/27 15:02:45;;;;;;;7.65;2.85;;;24.80;39.40;;;;;;10359547;28;20141;-52
2024/02/27 15:07:47;;;;;;;6.00;2.70;;;24.70;36.60;;;;;;10321079;28;20121;-52
2024/02/27 15:12:48;;;;;;;9.07;2.83;;;24.30;37.70;;;;;;10358300;28;20053;-56
2024/02/27 15:17:51;;;;;;;6.63;2.72;;;24.20;38.30;;;;;;10359111;28;20064;-56
2024/02/27 15:22:53;;;;;;;4.70;2.50;;;24.10;38.90;;;;;;10351100;28;20050;-52
2024/02/27 15:27:54;;;;;;;3.67;2.20;;;23.70;39.00;;;;;;10360753;28;20046;-55
2024/02/27 15:32:57;;;;;;;3.63;2.40;;;23.80;38.90;;;;;;10354057;28;20417;-55
2024/02/27 15:37:59;;;;;;;4.45;2.13;;;23.60;38.20;;;;;;10353307;28;20137;-56
2024/02/27 15:43:01;;;;;;;5.80;2.28;;;23.80;39.10;;;;;;10357231;28;20057;-52
2024/02/27 15:48:04;;;;;;;3.17;2.30;;;23.60;36.90;;;;;;10353448;28;20150;-51
2024/02/27 15:53:06;;;;;;;2.30;1.75;;;23.60;37.70;;;;;;10361990;28;20060;-51
2024/02/27 15:58:08;;;;;;;4.10;1.65;;;24.00;37.00;;;;;;10357122;28;20042;-54
2024/02/27 16:03:13;;;;;;;3.45;1.70;;;24.00;36.70;;;;;;10359479;28;20042;-54
2024/02/27 16:08:14;;;;;;;7.68;2.00;;;24.00;35.90;;;;;;10359342;28;20064;-54
2024/02/27 16:13:16;;;;;;;2.67;1.50;;;24.20;35.10;;;;;;10352759;28;20052;-55
2024/02/27 16:18:19;;;;;;;10.57;1.60;;;24.10;36.20;;;;;;10351472;28;20053;-52
2024/02/27 16:23:25;;;;;;;9.88;2.10;;;24.00;36.00;;;;;;10359412;28;20054;-54
2024/02/27 16:28:26;;;;;;;5.03;1.30;;;24.10;36.10;;;;;;10360921;28;20096;-51
2024/02/27 16:33:29;;;;;;;4.30;1.75;;;24.10;36.20;;;;;;10351917;28;20070;-51
2024/02/27 16:38:31;;;;;;;3.72;1.60;;;24.20;36.00;;;;;;10362542;28;20064;-52
2024/02/27 16:43:33;;;;;;;5.70;1.67;;;24.30;35.50;;;;;;10367909;28;20466;-51
2024/02/27 16:48:36;;;;;;;6.50;1.35;;;24.30;35.60;;;;;;10362668;28;20048;-54
2024/02/27 16:53:37;;;;;;;2.05;1.00;;;24.40;36.00;;;;;;10360379;28;20085;-52
2024/02/27 16:58:39;;;;;;;3.17;1.10;;;24.30;36.70;;;;;;10352296;28;20097;-53
2024/02/27 17:03:42;;;;;;;2.53;0.80;;;24.60;37.40;;;;;;10360614;28;20046;-54
2024/02/27 17:08:44;;;;;;;2.08;0.80;;;25.00;37.20;;;;;;10359540;28;20128;-50
2024/02/27 17:13:46;;;;;;;4.50;1.10;;;25.20;37.10;;;;;;10360340;28;20128;-53
2024/02/27 17:18:49;;;;;;;4.68;0.90;;;25.00;38.00;;;;;;10363900;28;20411;-57
2024/02/27 17:23:50;;;;;;;3.85;0.85;;;25.20;38.60;;;;;;10360169;28;20435;-53
2024/02/27 17:28:52;;;;;;;0.98;0.80;;;25.30;38.60;;;;;;10359864;28;20495;-57
2024/02/27 17:33:55;;;;;;;5.30;1.05;;;25.70;38.80;;;;;;10356918;28;20041;-51
2024/02/27 17:38:57;;;;;;;2.30;0.85;;;25.70;39.20;;;;;;10359538;28;20415;-55
2024/02/27 17:43:58;;;;;;;5.22;0.98;;;25.90;39.40;;;;;;10359275;28;20049;-55
2024/02/27 17:49:01;;;;;;;3.75;0.70;;;26.00;39.80;;;;;;10361538;28;20140;-53
2024/02/27 17:54:03;;;;;;;1.63;0.90;;;26.30;39.80;;;;;;10356238;28;20054;-56
2024/02/27 17:59:04;;;;;;;7.53;0.95;;;26.00;40.30;;;;;;10360544;28;20045;-54
2024/02/27 18:04:07;;;;;;;10.52;0.80;;;26.40;40.40;;;;;;10364107;28;20045;-55
2024/02/27 18:09:09;;;;;;;10.63;1.08;;;26.20;40.90;;;;;;10351423;28;20040;-54
2024/02/27 18:14:11;;;;;;;1.88;0.82;;;26.50;40.90;;;;;;10360204;28;20049;-53
2024/02/27 18:19:14;;;;;;;9.27;1.45;;;26.40;41.40;;;;;;10362527;28;20080;-56
2024/02/27 18:24:15;;;;;;;7.82;1.20;;;26.50;41.30;;;;;;10353644;28;20133;-50
2024/02/27 18:29:17;;;;;;;1.13;0.70;;;26.40;40.90;;;;;;10361637;28;20073;-57
2024/02/27 18:34:20;;;;;;;2.20;0.80;;;26.40;40.10;;;;;;10363439;28;20052;-52
2024/02/27 18:39:22;;;;;;;7.57;0.90;;;26.20;40.30;;;;;;10354332;28;20076;-53
2024/02/27 18:44:26;;;;;;;4.88;0.93;;;25.90;41.10;;;;;;10359864;28;20050;-52
2024/02/27 18:49:29;;;;;;;3.05;1.17;;;25.90;42.10;;;;;;10359841;28;20060;-57
2024/02/27 18:54:31;;;;;;;2.10;0.80;;;25.70;42.00;;;;;;10357674;28;20054;-50
2024/02/27 18:59:32;;;;;;;4.32;0.80;;;25.70;42.40;;;;;;10361657;28;20423;-56
2024/02/27 19:04:35;;;;;;;13.25;1.00;;;25.80;42.40;;;;;;10362827;28;20053;-55
2024/02/27 19:09:39;;;;;;;5.45;0.80;;;25.90;42.00;;;;;;10358384;28;20125;-52
2024/02/27 19:14:41;;;;;;;6.72;0.90;;;25.80;41.90;;;;;;10358193;28;20147;-55
2024/02/27 19:19:44;;;;;;;2.13;0.65;;;25.70;42.10;;;;;;10355622;28;20484;-54
2024/02/27 19:24:46;;;;;;;4.25;0.70;;;25.70;41.90;;;;;;10350532;28;20141;-55
2024/02/27 19:29:47;;;;;;;4.75;0.90;;;26.00;41.20;;;;;;10351625;28;20061;-55
2024/02/27 19:34:50;;;;;;;6.25;0.90;;;26.10;40.70;;;;;;10350539;28;20042;-51
2024/02/27 19:39:52;;;;;;;3.70;0.80;;;26.10;40.60;;;;;;10356416;28;20506;-55
2024/02/27 19:44:54;;;;;;;3.13;0.75;;;26.00;40.60;;;;;;10356562;28;20037;-51
2024/02/27 19:49:57;;;;;;;4.35;1.60;;;25.80;41.00;;;;;;10358429;28;20046;-53
2024/02/27 19:54:59;;;;;;;6.13;3.08;;;25.80;41.30;;;;;;10354319;28;20102;-55
2024/02/27 20:00:01;;;;;;;31.50;11.63;;;25.70;41.70;;;;;;10354733;28;20137;-52
2024/02/27 20:05:05;;;;;;;418.83;94.85;;;25.50;41.90;;;;;;10360602;28;20060;-55
2024/02/27 20:10:07;;;;;;;240.35;58.42;;;25.40;42.20;;;;;;10363737;28;20045;-52
2024/02/27 20:15:09;;;;;;;193.68;50.85;;;25.20;42.40;;;;;;10363921;28;20038;-54
2024/02/27 20:20:13;;;;;;;185.27;49.00;;;25.10;42.60;;;;;;10358174;28;20129;-54
2024/02/27 20:25:14;;;;;;;169.70;43.90;;;25.00;42.60;;;;;;10357721;28;20512;-54
2024/02/27 20:30:16;;;;;;;156.15;45.38;;;24.90;42.60;;;;;;10362303;28;20126;-52
2024/02/27 20:35:19;;;;;;;141.65;42.38;;;24.90;42.60;;;;;;10362108;28;20416;-54
2024/02/27 20:40:22;;;;;;;129.15;39.38;;;24.80;42.50;;;;;;10357247;28;20465;-54
2024/02/27 20:45:25;;;;;;;127.03;39.45;;;24.60;42.60;;;;;;10365193;28;20061;-51
2024/02/27 20:50:29;;;;;;;123.78;38.55;;;24.60;42.60;;;;;;10363441;28;20056;-55
2024/02/27 20:55:30;;;;;;;113.13;36.30;;;24.60;42.60;;;;;;10364290;28;20053;-54
2024/02/27 21:00:32;;;;;;;104.97;35.80;;;24.60;42.30;;;;;;10365252;28;20056;-53
2024/02/27 21:05:35;;;;;;;99.57;34.10;;;24.60;42.00;;;;;;10364090;28;20050;-57
2024/02/27 21:10:37;;;;;;;98.07;34.20;;;24.60;42.10;;;;;;10363747;28;20053;-53
2024/02/27 21:15:38;;;;;;;95.28;33.42;;;24.60;41.80;;;;;;10362313;28;20045;-57
2024/02/27 21:20:43;;;;;;;92.82;31.67;;;24.60;41.70;;;;;;10351978;28;20492;-57
2024/02/27 21:25:44;;;;;;;88.07;31.33;;;24.50;41.70;;;;;;10366319;28;20041;-57
2024/02/27 21:30:46;;;;;;;85.65;30.73;;;24.50;41.70;;;;;;10361728;28;20042;-55
2024/02/27 21:35:49;;;;;;;77.75;31.00;;;24.30;41.70;;;;;;10359160;28;20145;-51
2024/02/27 21:40:51;;;;;;;80.97;30.75;;;24.40;41.60;;;;;;10351659;28;20144;-51
2024/02/27 21:45:52;;;;;;;73.60;28.90;;;24.30;41.60;;;;;;10354165;28;20042;-54
2024/02/27 21:50:55;;;;;;;72.40;27.98;;;24.20;41.60;;;;;;10354395;28;20045;-53
2024/02/27 21:55:57;;;;;;;77.88;28.13;;;24.00;42.10;;;;;;10358061;28;20052;-51
2024/02/27 22:00:58;;;;;;;77.05;27.48;;;23.80;42.40;;;;;;10359300;28;20045;-55
2024/02/27 22:06:01;;;;;;;66.97;27.42;;;23.90;42.10;;;;;;10363128;28;20048;-53
2024/02/27 22:11:06;;;;;;;70.93;27.23;;;24.00;41.90;;;;;;10361908;28;20747;-52
2024/02/27 22:16:08;;;;;;;63.28;27.55;;;24.00;41.80;;;;;;10362488;28;20111;-52
2024/02/27 22:21:11;;;;;;;68.05;26.60;;;24.00;41.70;;;;;;10357146;28;20142;-52
2024/02/27 22:26:12;;;;;;;67.13;25.63;;;24.00;41.60;;;;;;10357748;28;20042;-52
2024/02/27 22:31:14;;;;;;;64.95;26.45;;;24.00;41.40;;;;;;10355524;28;20050;-53
2024/02/27 22:36:17;;;;;;;62.50;24.60;;;23.80;41.70;;;;;;10357786;28;20077;-58
2024/02/27 22:41:19;;;;;;;56.85;24.58;;;23.80;41.60;;;;;;10362735;28;20050;-57
2024/02/27 22:46:24;;;;;;;58.22;25.02;;;23.70;41.70;;;;;;10361015;28;20044;-56
2024/02/27 22:51:27;;;;;;;55.55;23.58;;;23.60;41.70;;;;;;10356581;28;20053;-56
2024/02/27 22:56:29;;;;;;;52.13;23.05;;;23.60;41.70;;;;;;10349478;28;20042;-58
2024/02/27 23:01:30;;;;;;;51.97;22.35;;;23.60;41.60;;;;;;10352258;28;20140;-55
2024/02/27 23:06:33;;;;;;;47.08;22.15;;;23.60;41.60;;;;;;10351980;28;20700;-51
2024/02/27 23:11:35;;;;;;;45.80;21.50;;;23.50;41.60;;;;;;10351792;28;20133;-55
2024/02/27 23:16:37;;;;;;;48.28;22.35;;;23.40;41.80;;;;;;10358504;28;20103;-58
2024/02/27 23:21:40;;;;;;;44.65;20.83;;;23.20;41.90;;;;;;10363840;28;20053;-53
2024/02/27 23:26:42;;;;;;;46.20;21.05;;;23.50;41.50;;;;;;10360442;28;20056;-54
2024/02/27 23:31:43;;;;;;;47.22;20.30;;;23.40;41.60;;;;;;10357386;28;20054;-56
2024/02/27 23:36:46;;;;;;;44.97;20.40;;;23.40;41.50;;;;;;10351649;28;20486;-53
2024/02/27 23:41:48;;;;;;;43.63;20.10;;;23.40;41.40;;;;;;10349526;28;20141;-53
2024/02/27 23:46:50;;;;;;;45.92;20.67;;;23.40;41.30;;;;;;10355986;28;20132;-51
2024/02/27 23:51:53;;;;;;;39.33;19.20;;;23.40;41.10;;;;;;10360207;28;20057;-51
2024/02/27 23:56:55;;;;;;;41.10;18.70;;;23.30;41.40;;;;;;10357953;28;20050;-56
